Orsola Bottiglieri — ICQN — position and weather

sailwx.info

Track history (hours):
 
Tides and Currents Weather Stations Pressure Air Temp Water Temp Dewpoint Dewpoint Depression Visibility Wind Speed Wind Dir Waves Ship Positions

Orsola Bottiglieri

Last reported at 2015-Jan-25 10:33 UTC. Time now 2015-Jan-28 20:19 UTC.
Position N 33°06' E 030°41'.

Length 292 m; draft 8.5 m.

Type: Cargo ship. MMSI: 247304400.

Date/timePositionNaut miles runAvg speedWind from/ knotsBaromVisibWave heightAir tempDewpointWater temp
2015-Jan-25 10:33N 33°06' E 030°41'174 9.4
2015-Jan-24 16:03N 32°21' E 034°01'3 5.6
2015-Jan-24 15:33N 32°20' E 034°04'1 0.5
2015-Jan-24 13:31N 32°21' E 034°04'3 0.5
2015-Jan-24 08:28N 32°19' E 034°07'1 0.7
2015-Jan-24 07:31N 32°19' E 034°07'1 0.7
2015-Jan-24 06:31N 32°18' E 034°08'1 0.9
2015-Jan-24 05:31N 32°18' E 034°09'1 1.0
2015-Jan-24 04:28N 32°17' E 034°10'1 0.9
2015-Jan-24 03:31N 32°17' E 034°10'2 0.8
2015-Jan-24 00:31N 32°15' E 034°13'1 0.8
2015-Jan-23 23:22N 32°14' E 034°13'1 0.9
2015-Jan-23 22:31N 32°14' E 034°14'1 1.0
2015-Jan-23 21:28N 32°13' E 034°15'1 1.0
2015-Jan-23 20:31N 32°13' E 034°16'1 1.0
2015-Jan-23 19:31N 32°12' E 034°17'2 1.1
2015-Jan-23 18:04N 32°11' E 034°18'1 1.1
2015-Jan-23 17:33N 32°11' E 034°19'1 1.2
2015-Jan-23 16:33N 32°10' E 034°20'3 1.2
2015-Jan-23 14:15N 32°08' E 034°22'4 1.5
2015-Jan-23 11:26N 32°03' E 034°23'8 4.1
2015-Jan-23 09:30N 31°56' E 034°26'7 8.0
2015-Jan-23 08:33N 31°48' E 034°26'8 6.8
2015-Jan-23 07:21N 31°40' E 034°28'  
2015-Jan-21 02:26N 31°38' E 034°30'0 0.0
2015-Jan-21 01:32N 31°38' E 034°30'  
Track history (hours):
 
Tides and Currents Weather Stations Pressure Air Temp Water Temp Dewpoint Dewpoint Depression Visibility Wind Speed Wind Dir Waves Ship Positions

Orsola Bottiglieri

Last reported at 2015-Jan-25 10:33 UTC. Time now 2015-Jan-28 20:19 UTC.
Position N 33°06' E 030°41'.

Length 292 m; draft 8.5 m.

Type: Cargo ship. MMSI: 247304400.

Date/timePositionNaut miles runAvg speedWind from/ knotsBaromVisibWave heightAir tempDewpointWater temp
2015-Jan-25 10:33N 33°06' E 030°41'174 9.4
2015-Jan-24 16:03N 32°21' E 034°01'3 5.6
2015-Jan-24 15:33N 32°20' E 034°04'1 0.5
2015-Jan-24 13:31N 32°21' E 034°04'3 0.5
2015-Jan-24 08:28N 32°19' E 034°07'1 0.7
2015-Jan-24 07:31N 32°19' E 034°07'1 0.7
2015-Jan-24 06:31N 32°18' E 034°08'1 0.9
2015-Jan-24 05:31N 32°18' E 034°09'1 1.0
2015-Jan-24 04:28N 32°17' E 034°10'1 0.9
2015-Jan-24 03:31N 32°17' E 034°10'2 0.8
2015-Jan-24 00:31N 32°15' E 034°13'1 0.8
2015-Jan-23 23:22N 32°14' E 034°13'1 0.9
2015-Jan-23 22:31N 32°14' E 034°14'1 1.0
2015-Jan-23 21:28N 32°13' E 034°15'1 1.0
2015-Jan-23 20:31N 32°13' E 034°16'1 1.0
2015-Jan-23 19:31N 32°12' E 034°17'2 1.1
2015-Jan-23 18:04N 32°11' E 034°18'1 1.1
2015-Jan-23 17:33N 32°11' E 034°19'1 1.2
2015-Jan-23 16:33N 32°10' E 034°20'3 1.2
2015-Jan-23 14:15N 32°08' E 034°22'4 1.5
2015-Jan-23 11:26N 32°03' E 034°23'8 4.1
2015-Jan-23 09:30N 31°56' E 034°26'7 8.0
2015-Jan-23 08:33N 31°48' E 034°26'8 6.8
2015-Jan-23 07:21N 31°40' E 034°28'  
2015-Jan-21 02:26N 31°38' E 034°30'0 0.0
2015-Jan-21 01:32N 31°38' E 034°30'  

Dump ship's entire track history